This is the latest recevied weather packets stored in our database for station/object YB3RDW-13. If no packets are shown the sender has not sent any weather packets the latest 10 day(s).
| Time | Temp. | Humidity | Pressure | Rain* | Wind** | Luminosity | Snow |
|---|---|---|---|---|---|---|---|
| 1777443717 | 30° C | 79% | 1009 hPa | 0 mm | - | 197 W/m² | - |
| 1777443419 | 30° C | 80% | 1010 hPa | 0 mm | - | 203 W/m² | - |
| 1777443119 | 30.56° C | 79% | 1009 hPa | 0 mm | - | 153 W/m² | - |
| 1777442818 | 31.11° C | 78% | 1009 hPa | 0 mm | - | 126 W/m² | - |
| 1777442517 | 31.11° C | 78% | 1009 hPa | 0 mm | - | 214 W/m² | - |
| 1777442218 | 31.11° C | 77% | 1009 hPa | 0 mm | - | 161 W/m² | - |
| 1777441918 | 30.56° C | 78% | 1010 hPa | 0 mm | - | 93 W/m² | - |
| 1777441617 | 31.11° C | 77% | 1010 hPa | 0 mm | - | 71 W/m² | - |
| 1777441318 | 32.22° C | 76% | 1010 hPa | 0 mm | - | 110 W/m² | - |
| 1777441017 | 33.89° C | 70% | 1010 hPa | 0 mm | - | 175 W/m² | - |
| 1777440718 | 33.89° C | 66% | 1010 hPa | 0 mm | - | 382 W/m² | - |
| 1777440418 | 32.78° C | 68% | 1009 hPa | 0 mm | - | 765 W/m² | - |
| 1777440117 | 32.22° C | 70% | 1010 hPa | 0 mm | - | 724 W/m² | - |
| 1777439818 | 32.22° C | 71% | 1010 hPa | 0 mm | - | 128 W/m² | - |
| 1777439518 | 32.22° C | 71% | 1010 hPa | 0 mm | - | 101 W/m² | - |
| 1777439218 | 32.78° C | 71% | 1010 hPa | 0 mm | - | 101 W/m² | - |
| 1777438918 | 33.33° C | 69% | 1010 hPa | 0 mm | - | 131 W/m² | - |
| 1777438617 | 32.78° C | 70% | 1010 hPa | 0 mm | - | 771 W/m² | - |
| 1777438317 | 32.78° C | 70% | 1010 hPa | 0 mm | - | 184 W/m² | - |
| 1777438018 | 32.78° C | 69% | 1010 hPa | 0 mm | - | 253 W/m² | - |
| 1777437718 | 33.33° C | 69% | 1010 hPa | 0 mm | - | 686 W/m² | - |
| 1777437418 | 33.33° C | 71% | 1010 hPa | 0 mm | - | 248 W/m² | - |
| 1777437117 | 33.33° C | 70% | 1011 hPa | 0 mm | - | 494 W/m² | - |
| 1777436820 | 32.78° C | 69% | 1011 hPa | 0 mm | - | 211 W/m² | - |
| 1777436518 | 33.33° C | 68% | 1011 hPa | 0 mm | - | 209 W/m² | - |
* Rain latest hour (hover to see other rain measurements)
** Current wind speed in m/s (hover to see current wind gust speed)